createdAt,value
2022-12-25T00:00:10.405Z,12.13
2022-12-25T00:02:41.159Z,10.87
2022-12-25T00:05:10.153Z,10.97
2022-12-25T00:07:39.894Z,10.53
2022-12-25T00:10:09.765Z,9.80
2022-12-25T00:12:38.242Z,9.93
2022-12-25T00:15:07.513Z,10.10
2022-12-25T00:17:35.829Z,9.37
2022-12-25T00:20:04.226Z,9.47
2022-12-25T00:22:32.469Z,9.77
2022-12-25T00:25:02.273Z,8.40
2022-12-25T00:27:33.526Z,8.20
2022-12-25T00:30:01.908Z,8.93
2022-12-25T00:32:30.254Z,8.77
2022-12-25T00:34:58.484Z,8.70
2022-12-25T00:37:26.949Z,7.80
2022-12-25T00:39:55.191Z,9.80
2022-12-25T00:42:27.023Z,7.80
2022-12-25T00:44:55.386Z,7.43
2022-12-25T00:47:24.038Z,8.60
2022-12-25T00:49:52.417Z,7.93
2022-12-25T00:52:20.718Z,8.10
2022-12-25T00:54:49.092Z,7.57
2022-12-25T00:57:17.469Z,7.37
2022-12-25T00:59:47.089Z,7.10
2022-12-25T01:02:25.993Z,6.37
2022-12-25T01:04:56.204Z,8.40
2022-12-25T01:07:26.314Z,6.47
2022-12-25T01:10:12.342Z,8.17
2022-12-25T01:12:42.410Z,7.13
2022-12-25T01:15:13.354Z,7.27
2022-12-25T01:17:42.143Z,7.10
2022-12-25T01:20:11.473Z,7.03
2022-12-25T01:22:39.860Z,6.83
2022-12-25T01:25:10.708Z,6.53
2022-12-25T01:27:39.874Z,7.00
2022-12-25T01:30:09.289Z,7.40
2022-12-25T01:32:39.192Z,7.83
2022-12-25T01:35:08.203Z,7.07
2022-12-25T01:37:36.452Z,7.47
2022-12-25T01:40:05.270Z,7.57
2022-12-25T01:42:33.611Z,7.63
2022-12-25T01:45:36.285Z,7.40
2022-12-25T01:48:09.442Z,8.27
2022-12-25T01:50:39.425Z,7.77
2022-12-25T01:53:08.428Z,8.60
2022-12-25T01:55:37.614Z,8.57
2022-12-25T01:58:06.139Z,7.23
2022-12-25T02:00:34.557Z,8.80
2022-12-25T02:03:03.142Z,8.53
2022-12-25T02:05:34.382Z,8.33
2022-12-25T02:08:07.102Z,7.70
2022-12-25T02:10:35.543Z,8.13
2022-12-25T02:13:04.069Z,7.33
2022-12-25T02:15:39.292Z,8.20
2022-12-25T02:18:17.055Z,8.63
2022-12-25T02:21:08.314Z,8.90
2022-12-25T02:23:59.326Z,8.80
2022-12-25T02:26:41.983Z,7.73
2022-12-25T02:29:17.371Z,8.07
2022-12-25T02:31:49.916Z,9.17
2022-12-25T02:34:21.812Z,9.07
2022-12-25T02:36:52.506Z,9.07
2022-12-25T02:39:42.131Z,7.93
2022-12-25T02:42:16.236Z,8.67
2022-12-25T02:45:04.913Z,8.27
2022-12-25T02:47:51.403Z,9.10
2022-12-25T02:50:37.978Z,9.50
2022-12-25T02:53:23.870Z,8.43
2022-12-25T02:56:09.992Z,9.07
2022-12-25T02:58:56.789Z,9.97
2022-12-25T03:01:47.723Z,10.13
2022-12-25T03:04:37.922Z,9.57
2022-12-25T03:07:10.623Z,9.23
2022-12-25T03:10:15.301Z,10.23
2022-12-25T03:12:46.674Z,9.87
2022-12-25T03:15:32.423Z,10.40
2022-12-25T03:18:04.623Z,10.83
2022-12-25T03:20:52.175Z,11.00
2022-12-25T03:23:40.670Z,11.93
2022-12-25T03:26:26.680Z,11.23
2022-12-25T03:28:54.970Z,11.60
2022-12-25T03:31:28.066Z,10.57
2022-12-25T03:34:45.486Z,11.53
2022-12-25T03:37:37.486Z,11.20
2022-12-25T03:40:29.166Z,12.40
2022-12-25T03:43:24.556Z,11.00
2022-12-25T03:46:08.844Z,11.93
2022-12-25T03:48:59.071Z,12.50
2022-12-25T03:51:50.080Z,12.23
2022-12-25T03:54:40.295Z,13.20
2022-12-25T03:57:27.219Z,12.47
2022-12-25T04:00:13.318Z,11.30
2022-12-25T04:02:59.043Z,11.10
2022-12-25T04:05:44.675Z,12.80
2022-12-25T04:08:31.708Z,11.97
2022-12-25T04:11:17.340Z,11.70
2022-12-25T04:14:03.204Z,13.30
2022-12-25T04:16:48.809Z,12.33
2022-12-25T04:19:45.998Z,12.83
2022-12-25T04:22:31.676Z,14.03
2022-12-25T04:25:18.623Z,13.50
2022-12-25T04:28:04.858Z,12.93
2022-12-25T04:30:50.602Z,13.93
2022-12-25T04:33:36.282Z,13.10
2022-12-25T04:36:10.654Z,14.27
2022-12-25T04:38:39.723Z,14.03
2022-12-25T04:41:09.679Z,12.97
2022-12-25T04:43:37.986Z,13.53
2022-12-25T04:46:07.281Z,15.63
2022-12-25T04:48:37.048Z,14.57
2022-12-25T04:51:15.852Z,13.87
2022-12-25T04:53:44.385Z,12.77
2022-12-25T04:56:14.214Z,13.77
2022-12-25T04:58:42.946Z,14.70
2022-12-25T05:01:12.013Z,14.73
2022-12-25T05:03:40.685Z,13.93
2022-12-25T05:06:09.320Z,14.30
2022-12-25T05:08:37.637Z,16.60
2022-12-25T05:11:10.519Z,16.67
2022-12-25T05:13:40.652Z,17.13
2022-12-25T05:16:10.512Z,19.10
2022-12-25T05:18:38.945Z,18.47
2022-12-25T05:21:08.537Z,18.43
2022-12-25T05:23:37.009Z,18.23
2022-12-25T05:26:06.848Z,17.30
2022-12-25T05:28:35.835Z,16.50
2022-12-25T05:31:05.504Z,13.30
2022-12-25T05:33:33.834Z,14.27
2022-12-25T05:36:03.901Z,13.77
2022-12-25T05:38:32.249Z,14.87
2022-12-25T05:41:00.648Z,14.53
2022-12-25T05:43:28.940Z,12.87
2022-12-25T05:45:57.437Z,14.17
2022-12-25T05:48:27.121Z,12.40
2022-12-25T05:50:55.387Z,12.47
2022-12-25T05:53:23.754Z,13.13
2022-12-25T05:55:51.998Z,12.80
2022-12-25T05:58:20.315Z,14.03
2022-12-25T06:00:48.625Z,11.80
2022-12-25T06:03:17.068Z,14.60
2022-12-25T06:05:46.798Z,11.43
2022-12-25T06:08:15.026Z,17.53
2022-12-25T06:10:43.283Z,12.63
2022-12-25T06:13:11.659Z,15.67
2022-12-25T06:15:40.776Z,16.87
2022-12-25T06:18:09.470Z,11.57
2022-12-25T06:20:37.906Z,14.33
2022-12-25T06:23:07.646Z,12.63
2022-12-25T06:25:35.946Z,15.80
2022-12-25T06:28:04.257Z,13.47
2022-12-25T06:30:32.937Z,11.63
2022-12-25T06:33:01.646Z,11.23
2022-12-25T06:35:30.189Z,11.30
2022-12-25T06:37:58.458Z,11.03
2022-12-25T06:40:28.215Z,13.50
2022-12-25T06:42:56.663Z,13.60
2022-12-25T06:45:24.985Z,17.33
2022-12-25T06:47:53.274Z,18.97
2022-12-25T06:50:21.730Z,14.60
2022-12-25T06:52:50.211Z,12.20
2022-12-25T06:55:18.472Z,14.90
2022-12-25T06:57:48.185Z,13.27
2022-12-25T07:00:17.071Z,17.53
2022-12-25T07:02:48.112Z,14.73
2022-12-25T07:05:16.618Z,14.87
2022-12-25T07:07:44.875Z,11.90
2022-12-25T07:10:13.298Z,14.23
2022-12-25T07:12:41.576Z,14.40
2022-12-25T07:15:11.985Z,18.57
2022-12-25T07:17:40.249Z,13.07
2022-12-25T07:20:09.817Z,16.33
2022-12-25T07:22:38.192Z,14.67
2022-12-25T07:25:07.398Z,13.63
2022-12-25T07:27:35.622Z,14.20
2022-12-25T07:30:04.057Z,11.93
2022-12-25T07:32:34.322Z,11.93
2022-12-25T07:35:02.573Z,13.00
2022-12-25T07:37:30.862Z,11.07
2022-12-25T07:39:59.030Z,13.50
2022-12-25T07:42:27.508Z,11.67
2022-12-25T07:44:56.189Z,11.03
2022-12-25T07:47:24.546Z,11.33
2022-12-25T07:49:54.235Z,11.97
2022-12-25T07:52:22.931Z,9.30
2022-12-25T07:54:51.369Z,10.17
2022-12-25T07:57:19.633Z,11.87
2022-12-25T07:59:47.908Z,12.60
2022-12-25T08:02:16.732Z,11.70
2022-12-25T08:04:45.129Z,12.43
2022-12-25T08:07:15.677Z,10.37
2022-12-25T08:09:43.975Z,10.97
2022-12-25T08:12:12.362Z,12.83
2022-12-25T08:14:40.726Z,14.50
2022-12-25T08:17:09.233Z,12.40
2022-12-25T08:19:37.457Z,11.63
2022-12-25T08:22:05.861Z,12.43
2022-12-25T08:24:35.474Z,11.70
2022-12-25T08:27:04.157Z,13.23
2022-12-25T08:29:33.536Z,11.73
2022-12-25T08:32:02.000Z,11.90
2022-12-25T08:34:30.305Z,11.40
2022-12-25T08:36:58.607Z,11.47
2022-12-25T08:39:26.895Z,12.10
2022-12-25T08:41:56.501Z,13.23
2022-12-25T08:44:24.730Z,12.07
2022-12-25T08:46:53.014Z,11.77
2022-12-25T08:49:21.435Z,12.77
2022-12-25T08:51:49.911Z,12.07
2022-12-25T08:54:18.175Z,13.33
2022-12-25T08:56:46.465Z,11.50
2022-12-25T08:59:16.094Z,12.73
2022-12-25T09:01:44.403Z,12.23
2022-12-25T09:04:12.743Z,13.70
2022-12-25T09:06:40.979Z,12.53
2022-12-25T09:09:09.340Z,13.47
2022-12-25T09:11:38.095Z,14.57
2022-12-25T09:14:06.335Z,12.23
2022-12-25T09:16:36.052Z,12.27
2022-12-25T09:19:04.345Z,12.13
2022-12-25T09:21:32.607Z,14.10
2022-12-25T09:24:00.893Z,13.27
2022-12-25T09:26:29.436Z,13.57
2022-12-25T09:28:57.692Z,12.57
2022-12-25T09:31:26.021Z,12.90
2022-12-25T09:33:58.387Z,12.73
2022-12-25T09:36:26.994Z,12.53
2022-12-25T09:38:55.370Z,13.67
2022-12-25T09:41:29.775Z,13.77
2022-12-25T09:44:01.727Z,12.77
2022-12-25T09:46:37.691Z,14.27
2022-12-25T09:49:13.207Z,13.30
2022-12-25T09:51:42.555Z,12.53
2022-12-25T09:54:15.896Z,13.07
2022-12-25T09:56:44.234Z,13.73
2022-12-25T09:59:19.728Z,13.30
2022-12-25T10:02:02.676Z,13.73
2022-12-25T10:04:43.912Z,14.13
2022-12-25T10:07:16.427Z,14.80
2022-12-25T10:09:53.618Z,13.90
2022-12-25T10:12:31.653Z,14.13
2022-12-25T10:15:11.395Z,13.00
2022-12-25T10:17:46.760Z,12.40
2022-12-25T10:20:22.560Z,12.87
2022-12-25T10:22:54.231Z,12.23
2022-12-25T10:25:24.822Z,12.03
2022-12-25T10:27:55.559Z,12.47
2022-12-25T10:30:25.946Z,11.97
2022-12-25T10:32:54.611Z,12.20
2022-12-25T10:35:26.218Z,11.90
2022-12-25T10:37:58.738Z,11.90
2022-12-25T10:40:32.550Z,12.97
2022-12-25T10:43:05.308Z,12.33
2022-12-25T10:45:44.331Z,12.60
2022-12-25T10:48:18.015Z,13.80
2022-12-25T10:50:47.957Z,12.07
2022-12-25T10:53:20.919Z,12.30
2022-12-25T10:55:56.929Z,12.80
2022-12-25T10:58:25.327Z,12.77
2022-12-25T11:00:55.196Z,13.87
2022-12-25T11:03:25.794Z,14.57
2022-12-25T11:05:55.598Z,11.87
2022-12-25T11:08:24.919Z,11.30
2022-12-25T11:10:55.109Z,13.37
2022-12-25T11:13:25.498Z,12.77
2022-12-25T11:16:04.568Z,13.67
2022-12-25T11:18:35.766Z,11.40
2022-12-25T11:21:17.625Z,11.70
2022-12-25T11:23:47.822Z,11.57
2022-12-25T11:26:17.081Z,12.00
2022-12-25T11:28:46.710Z,12.63
2022-12-25T11:31:19.264Z,11.73
2022-12-25T11:33:53.806Z,11.10
2022-12-25T11:36:30.160Z,12.40
2022-12-25T11:39:01.710Z,10.67
2022-12-25T11:41:33.177Z,10.97
2022-12-25T11:44:05.123Z,10.80
2022-12-25T11:46:40.257Z,10.50
2022-12-25T11:49:13.558Z,10.83
2022-12-25T11:51:46.104Z,10.47
2022-12-25T11:54:19.221Z,9.87
2022-12-25T11:56:47.781Z,10.30
2022-12-25T11:59:19.582Z,11.93
2022-12-25T12:01:49.832Z,10.57
2022-12-25T12:04:27.610Z,10.93
2022-12-25T12:07:02.740Z,10.83
2022-12-25T12:09:38.876Z,10.47
2022-12-25T12:12:14.189Z,10.87
2022-12-25T12:14:49.141Z,11.40
2022-12-25T12:17:18.337Z,11.43
2022-12-25T12:19:47.058Z,10.83
2022-12-25T12:22:21.054Z,11.00
2022-12-25T12:24:54.788Z,11.60
2022-12-25T12:27:26.845Z,11.37
2022-12-25T12:29:59.933Z,12.73
2022-12-25T12:32:37.210Z,12.43
2022-12-25T12:35:17.435Z,12.50
2022-12-25T12:37:50.090Z,12.43
2022-12-25T12:40:39.315Z,11.37
2022-12-25T12:43:08.676Z,11.90
2022-12-25T12:45:38.392Z,12.33
2022-12-25T12:48:16.508Z,12.40
2022-12-25T12:50:44.813Z,12.33
2022-12-25T12:53:28.578Z,12.77
2022-12-25T12:55:56.859Z,12.83
2022-12-25T12:58:34.140Z,12.53
2022-12-25T13:01:11.188Z,12.43
2022-12-25T13:04:04.856Z,12.00
2022-12-25T13:06:38.021Z,13.13
2022-12-25T13:09:16.545Z,12.57
2022-12-25T13:11:45.823Z,12.83
2022-12-25T13:14:16.405Z,19.07
2022-12-25T13:16:46.649Z,14.00
2022-12-25T13:19:16.661Z,14.70
2022-12-25T13:21:53.920Z,11.87
2022-12-25T13:24:25.272Z,15.33
2022-12-25T13:26:53.857Z,13.33
2022-12-25T13:29:30.938Z,13.57
2022-12-25T13:31:59.884Z,10.97
2022-12-25T13:34:32.438Z,12.00
2022-12-25T13:37:01.302Z,9.87
2022-12-25T13:39:30.993Z,10.10
2022-12-25T13:42:05.373Z,14.87
2022-12-25T13:44:42.410Z,10.50
2022-12-25T13:47:18.393Z,9.87
2022-12-25T13:49:47.549Z,9.13
2022-12-25T13:52:17.492Z,10.23
2022-12-25T13:55:01.477Z,9.40
2022-12-25T13:57:32.910Z,10.63
2022-12-25T14:00:01.703Z,8.73
2022-12-25T14:02:36.296Z,9.60
2022-12-25T14:05:05.294Z,10.30
2022-12-25T14:07:34.788Z,11.03
2022-12-25T14:10:05.292Z,9.77
2022-12-25T14:12:34.407Z,9.80
2022-12-25T14:15:05.381Z,8.90
2022-12-25T14:17:34.363Z,8.10
2022-12-25T14:20:08.288Z,9.60
2022-12-25T14:22:38.604Z,8.20
2022-12-25T14:25:16.763Z,8.77
2022-12-25T14:27:50.405Z,9.30
2022-12-25T14:30:19.263Z,9.33
2022-12-25T14:32:51.746Z,9.47
2022-12-25T14:35:23.575Z,9.37
2022-12-25T14:37:56.482Z,9.30
2022-12-25T14:40:30.348Z,9.40
2022-12-25T14:43:00.196Z,8.80
2022-12-25T14:45:31.286Z,9.27
2022-12-25T14:48:02.883Z,9.53
2022-12-25T14:50:33.499Z,9.37
2022-12-25T14:53:02.033Z,9.70
2022-12-25T14:55:32.062Z,10.10
2022-12-25T14:58:04.467Z,9.37
2022-12-25T15:00:35.477Z,9.20
2022-12-25T15:03:06.242Z,9.10
2022-12-25T15:05:36.549Z,9.50
2022-12-25T15:08:23.352Z,8.90
2022-12-25T15:11:02.573Z,9.50
2022-12-25T15:13:32.453Z,9.73
2022-12-25T15:16:04.719Z,10.60
2022-12-25T15:18:35.802Z,10.53
2022-12-25T15:21:04.488Z,10.37
2022-12-25T15:23:32.773Z,10.73
2022-12-25T15:26:02.397Z,9.60
2022-12-25T15:28:30.577Z,10.37
2022-12-25T15:30:58.830Z,10.57
2022-12-25T15:33:27.184Z,11.40
2022-12-25T15:35:55.452Z,10.27
2022-12-25T15:38:23.639Z,9.93
2022-12-25T15:40:52.359Z,9.90
2022-12-25T15:43:39.970Z,10.40
2022-12-25T15:46:10.326Z,10.47
2022-12-25T15:48:38.686Z,11.90
2022-12-25T15:51:07.175Z,13.53
2022-12-25T15:53:35.458Z,11.80
2022-12-25T15:56:03.813Z,12.37
2022-12-25T15:58:33.434Z,11.57
2022-12-25T16:01:01.774Z,12.27
2022-12-25T16:03:30.212Z,11.47
2022-12-25T16:05:58.573Z,11.63
2022-12-25T16:08:26.839Z,12.00
2022-12-25T16:10:55.128Z,12.03
2022-12-25T16:13:23.286Z,12.60
2022-12-25T16:15:53.048Z,12.83
2022-12-25T16:18:21.376Z,12.93
2022-12-25T16:20:49.680Z,14.20
2022-12-25T16:23:18.036Z,14.50
2022-12-25T16:25:46.328Z,15.43
2022-12-25T16:28:14.589Z,14.13
2022-12-25T16:30:43.017Z,14.40
2022-12-25T16:33:12.781Z,15.03
2022-12-25T16:35:41.050Z,15.50
2022-12-25T16:38:09.314Z,16.77
2022-12-25T16:40:37.591Z,14.73
2022-12-25T16:43:06.017Z,14.50
2022-12-25T16:45:39.269Z,14.60
2022-12-25T16:48:08.718Z,17.47
2022-12-25T16:50:40.746Z,15.80
2022-12-25T16:53:09.431Z,16.97
2022-12-25T16:55:38.820Z,14.67
2022-12-25T16:58:07.911Z,15.30
2022-12-25T17:00:36.229Z,15.03
2022-12-25T17:03:04.629Z,16.00
2022-12-25T17:05:34.701Z,15.80
2022-12-25T17:08:04.406Z,17.20
2022-12-25T17:10:33.213Z,16.73
2022-12-25T17:13:01.479Z,16.17
2022-12-25T17:15:29.781Z,17.07
2022-12-25T17:17:58.196Z,16.27
2022-12-25T17:20:26.519Z,16.03
2022-12-25T17:22:54.796Z,16.67
2022-12-25T17:25:24.401Z,17.30
2022-12-25T17:27:52.786Z,16.10
2022-12-25T17:30:21.205Z,15.97
2022-12-25T17:32:49.756Z,15.07
2022-12-25T17:35:20.608Z,15.40
2022-12-25T17:37:48.874Z,15.03
2022-12-25T17:40:17.414Z,16.10
2022-12-25T17:42:47.115Z,15.33
2022-12-25T17:45:15.719Z,16.10
2022-12-25T17:47:43.994Z,15.73
2022-12-25T17:50:12.473Z,14.90
2022-12-25T17:52:40.888Z,15.80
2022-12-25T17:55:10.037Z,16.83
2022-12-25T17:57:41.133Z,15.23
2022-12-25T18:00:13.247Z,16.47
2022-12-25T18:02:43.856Z,15.87
2022-12-25T18:05:12.307Z,16.57
2022-12-25T18:07:40.552Z,16.83
2022-12-25T18:10:09.861Z,15.70
2022-12-25T18:12:38.266Z,15.97
2022-12-25T18:15:07.213Z,16.53
2022-12-25T18:17:36.859Z,18.90
2022-12-25T18:20:05.575Z,17.33
2022-12-25T18:22:35.407Z,18.13
2022-12-25T18:25:03.635Z,16.70
2022-12-25T18:27:31.963Z,19.20
2022-12-25T18:30:00.856Z,17.80
2022-12-25T18:32:29.538Z,18.40
2022-12-25T18:34:59.367Z,18.53
2022-12-25T18:37:31.918Z,18.70
2022-12-25T18:40:03.206Z,19.33
2022-12-25T18:42:40.722Z,20.00
2022-12-25T18:45:11.758Z,19.20
2022-12-25T18:47:40.127Z,19.47
2022-12-25T18:50:11.437Z,18.83
2022-12-25T18:52:47.969Z,17.80
2022-12-25T18:55:20.253Z,19.17
2022-12-25T18:57:49.493Z,17.53
2022-12-25T19:00:18.574Z,18.93
2022-12-25T19:02:47.048Z,19.50
2022-12-25T19:05:17.506Z,17.93
2022-12-25T19:07:45.858Z,17.73
2022-12-25T19:10:15.601Z,16.90
2022-12-25T19:12:43.982Z,16.97
2022-12-25T19:15:12.583Z,17.23
2022-12-25T19:17:41.023Z,18.60
2022-12-25T19:20:11.037Z,20.47
2022-12-25T19:22:40.774Z,19.43
2022-12-25T19:25:10.033Z,18.37
2022-12-25T19:27:38.531Z,19.10
2022-12-25T19:30:09.586Z,17.43
2022-12-25T19:32:37.865Z,18.93
2022-12-25T19:35:07.281Z,18.10
2022-12-25T19:37:36.241Z,18.20
2022-12-25T19:40:07.287Z,19.67
2022-12-25T19:42:35.722Z,17.97
2022-12-25T19:45:04.279Z,18.17
2022-12-25T19:47:32.919Z,17.43
2022-12-25T19:50:03.377Z,19.97
2022-12-25T19:52:35.895Z,18.33
2022-12-25T19:55:05.992Z,18.43
2022-12-25T19:57:34.262Z,17.70
2022-12-25T20:00:02.594Z,16.40
2022-12-25T20:02:30.984Z,18.30
2022-12-25T20:04:59.398Z,18.67
2022-12-25T20:07:27.758Z,17.97
2022-12-25T20:09:55.949Z,18.27
2022-12-25T20:12:25.759Z,18.67
2022-12-25T20:14:54.055Z,17.20
2022-12-25T20:17:22.395Z,17.87
2022-12-25T20:19:50.593Z,17.47
2022-12-25T20:22:18.870Z,18.00
2022-12-25T20:24:49.103Z,16.90
2022-12-25T20:27:17.469Z,16.20
2022-12-25T20:29:47.185Z,17.93
2022-12-25T20:32:16.084Z,17.53
2022-12-25T20:34:44.572Z,16.70
2022-12-25T20:37:12.811Z,17.70
2022-12-25T20:39:41.201Z,17.27
2022-12-25T20:42:09.675Z,17.83
2022-12-25T20:44:38.863Z,16.87
2022-12-25T20:47:08.930Z,15.80
2022-12-25T20:49:37.176Z,16.93
2022-12-25T20:52:06.121Z,16.30
2022-12-25T20:54:34.493Z,16.77
2022-12-25T20:57:02.691Z,15.47
2022-12-25T20:59:36.997Z,15.27
2022-12-25T21:02:06.013Z,14.63
2022-12-25T21:04:35.732Z,14.73
2022-12-25T21:07:05.256Z,15.20
2022-12-25T21:09:33.659Z,15.83
2022-12-25T21:12:02.002Z,14.33
2022-12-25T21:14:31.716Z,15.40
2022-12-25T21:17:00.041Z,15.37
2022-12-25T21:19:28.349Z,15.27
2022-12-25T21:21:58.611Z,14.10
2022-12-25T21:24:27.144Z,13.47
2022-12-25T21:26:55.367Z,12.47
2022-12-25T21:29:24.488Z,12.40
2022-12-25T21:32:11.659Z,13.20
2022-12-25T21:34:39.953Z,12.60
2022-12-25T21:37:09.563Z,11.93
2022-12-25T21:39:37.833Z,13.30
2022-12-25T21:42:06.429Z,11.13
2022-12-25T21:44:34.892Z,12.53
2022-12-25T21:47:03.375Z,12.10
2022-12-25T21:49:49.143Z,11.43
2022-12-25T21:52:19.308Z,11.30
2022-12-25T21:54:47.654Z,11.00
2022-12-25T21:57:15.846Z,10.90
2022-12-25T21:59:45.517Z,11.63
2022-12-25T22:02:13.868Z,11.70
2022-12-25T22:04:42.323Z,10.23
2022-12-25T22:07:18.649Z,11.77
2022-12-25T22:09:49.927Z,10.57
2022-12-25T22:12:48.082Z,10.17
2022-12-25T22:15:16.497Z,10.90
2022-12-25T22:18:02.228Z,11.43
2022-12-25T22:20:34.619Z,11.67
2022-12-25T22:23:03.540Z,11.63
2022-12-25T22:25:33.229Z,10.70
2022-12-25T22:28:01.519Z,12.07
2022-12-25T22:30:30.812Z,8.93
2022-12-25T22:32:59.216Z,10.30
2022-12-25T22:35:27.463Z,9.90
2022-12-25T22:37:55.957Z,10.30
2022-12-25T22:40:24.432Z,10.70
2022-12-25T22:42:56.470Z,9.57
2022-12-25T22:45:25.107Z,9.40
2022-12-25T22:47:53.355Z,9.60
2022-12-25T22:50:21.639Z,9.50
2022-12-25T22:52:50.049Z,9.83
2022-12-25T22:55:20.188Z,8.47
2022-12-25T22:57:49.058Z,9.33
2022-12-25T23:00:18.959Z,10.17
2022-12-25T23:02:47.486Z,9.63
2022-12-25T23:05:16.289Z,9.87
2022-12-25T23:07:44.578Z,9.17
2022-12-25T23:10:13.532Z,9.17
2022-12-25T23:13:00.711Z,11.47
2022-12-25T23:15:30.377Z,8.87
2022-12-25T23:18:15.954Z,9.93
2022-12-25T23:21:10.270Z,9.20
2022-12-25T23:23:56.275Z,8.70
2022-12-25T23:26:24.643Z,9.27
2022-12-25T23:29:10.411Z,9.03
2022-12-25T23:31:42.285Z,8.50
2022-12-25T23:34:11.130Z,8.77
2022-12-25T23:36:39.349Z,9.47
2022-12-25T23:39:10.467Z,9.37
2022-12-25T23:41:39.967Z,9.40
2022-12-25T23:44:08.810Z,9.70
2022-12-25T23:46:37.385Z,8.67
2022-12-25T23:49:07.110Z,8.30
2022-12-25T23:51:36.599Z,9.67
2022-12-25T23:54:05.261Z,9.43
2022-12-25T23:56:34.275Z,9.30
2022-12-25T23:59:05.047Z,8.83
